<?xml version="1.0" encoding="UTF-8" standalone="no" ?>
<gpx xmlns="http://www.topografix.com/GPX/1/1" xmlns:xsi="http://www.w3.org/2001/XMLSchema-instance" xsi:schemaLocation="http://www.topografix.com/GPX/1/1 http://www.topografix.com/GPX/1/1/gpx.xsd" version="1.1" creator="VisuGPX - https://www.visugpx.com">
  <metadata>
    <name>AVF - St Antonin - Lorgues - Roque Senglé</name>
    <desc><![CDATA[St Antonin - Lorgues - Roque Senglé]]></desc>
  </metadata>
  <wpt lat="43.50652" lon="6.31812">
    <ele>280.7</ele>
    <name><![CDATA[WPT_0000036]]></name>
    <desc><![CDATA[]]></desc>
    <type><![CDATA[Photo]]></type>
  </wpt>
  <trk>
    <name><![CDATA[]]></name>
    <desc><![CDATA[<h1>OruxMaps</h1><br /><hr align="center" width="480" style="height: 2px; width: 517px"/><h2>Nom: </h2><br /><p>Temps de départ: 03/24/2015 13:54</p><p>Temps d'arrivée: 03/24/2015 16:20</p><p>Distance: 8,1km (02:25)</p><p>Temps déplacement: 02:01</p><p>Vitesse moyenne: 3,4km/h</p><p>Vitesse moyenne: 4km/h</p><p>Vitess Max.: 9,8km/h</p><p>Altitude minimale: 245m</p><p>Altitude maximale: 328m</p><p>Vitesse d'élévation: 204,9m/h</p><p>Vitesse de descente: -198m/h</p><p>Gain Altitude: 188m</p><p>Perte Altitude: -183m</p><p>Temps d'élévation: 00:55</p><p>Temps de descente: 00:55</p><hr align="center" width="480" style="height: 2px; width: 517px"/>]]></desc>
    <trkseg>
      <trkpt lat="43.50603" lon="6.31284">
        <ele>248.74</ele>
        <time>2015-03-24T12:54:53Z</time>
      </trkpt>
      <trkpt lat="43.50602" lon="6.3131">
        <ele>248.41</ele>
        <time>2015-03-24T12:55:11Z</time>
      </trkpt>
      <trkpt lat="43.50597" lon="6.31335">
        <ele>252.36</ele>
        <time>2015-03-24T12:55:28Z</time>
      </trkpt>
      <trkpt lat="43.50584" lon="6.31354">
        <ele>253.42</ele>
        <time>2015-03-24T12:55:45Z</time>
      </trkpt>
      <trkpt lat="43.50576" lon="6.31377">
        <ele>253.13</ele>
        <time>2015-03-24T12:56:04Z</time>
      </trkpt>
      <trkpt lat="43.50584" lon="6.31399">
        <ele>251.5</ele>
        <time>2015-03-24T12:56:20Z</time>
      </trkpt>
      <trkpt lat="43.50599" lon="6.31415">
        <ele>251.11</ele>
        <time>2015-03-24T12:56:35Z</time>
      </trkpt>
      <trkpt lat="43.50614" lon="6.3143">
        <ele>252.18</ele>
        <time>2015-03-24T12:56:55Z</time>
      </trkpt>
      <trkpt lat="43.50632" lon="6.31432">
        <ele>252.41</ele>
        <time>2015-03-24T12:57:18Z</time>
      </trkpt>
      <trkpt lat="43.50639" lon="6.31409">
        <ele>252.59</ele>
        <time>2015-03-24T12:57:29Z</time>
      </trkpt>
      <trkpt lat="43.50642" lon="6.31383">
        <ele>253.02</ele>
        <time>2015-03-24T12:57:46Z</time>
      </trkpt>
      <trkpt lat="43.50643" lon="6.31358">
        <ele>253.31</ele>
        <time>2015-03-24T12:58:01Z</time>
      </trkpt>
      <trkpt lat="43.50643" lon="6.31333">
        <ele>253.35</ele>
        <time>2015-03-24T12:58:11Z</time>
      </trkpt>
      <trkpt lat="43.50649" lon="6.31308">
        <ele>254.04</ele>
        <time>2015-03-24T12:58:29Z</time>
      </trkpt>
      <trkpt lat="43.50659" lon="6.31288">
        <ele>254.47</ele>
        <time>2015-03-24T12:58:42Z</time>
      </trkpt>
      <trkpt lat="43.5067" lon="6.31267">
        <ele>254.37</ele>
        <time>2015-03-24T12:58:58Z</time>
      </trkpt>
      <trkpt lat="43.50684" lon="6.31252">
        <ele>252.87</ele>
        <time>2015-03-24T12:59:14Z</time>
      </trkpt>
      <trkpt lat="43.50699" lon="6.31237">
        <ele>249.51</ele>
        <time>2015-03-24T12:59:31Z</time>
      </trkpt>
      <trkpt lat="43.50711" lon="6.31217">
        <ele>248.74</ele>
        <time>2015-03-24T12:59:45Z</time>
      </trkpt>
      <trkpt lat="43.50723" lon="6.31197">
        <ele>249</ele>
        <time>2015-03-24T13:00:00Z</time>
      </trkpt>
      <trkpt lat="43.50735" lon="6.31179">
        <ele>250.93</ele>
        <time>2015-03-24T13:00:15Z</time>
      </trkpt>
      <trkpt lat="43.50747" lon="6.3116">
        <ele>252.14</ele>
        <time>2015-03-24T13:00:31Z</time>
      </trkpt>
      <trkpt lat="43.50757" lon="6.31139">
        <ele>253.3</ele>
        <time>2015-03-24T13:00:46Z</time>
      </trkpt>
      <trkpt lat="43.50768" lon="6.31118">
        <ele>254.63</ele>
        <time>2015-03-24T13:01:03Z</time>
      </trkpt>
      <trkpt lat="43.50777" lon="6.31096">
        <ele>255.51</ele>
        <time>2015-03-24T13:01:17Z</time>
      </trkpt>
      <trkpt lat="43.50785" lon="6.31073">
        <ele>256.34</ele>
        <time>2015-03-24T13:01:33Z</time>
      </trkpt>
      <trkpt lat="43.50795" lon="6.31052">
        <ele>256.53</ele>
        <time>2015-03-24T13:01:49Z</time>
      </trkpt>
      <trkpt lat="43.50804" lon="6.3103">
        <ele>256.23</ele>
        <time>2015-03-24T13:02:07Z</time>
      </trkpt>
      <trkpt lat="43.50812" lon="6.31007">
        <ele>256.43</ele>
        <time>2015-03-24T13:02:24Z</time>
      </trkpt>
      <trkpt lat="43.50821" lon="6.30983">
        <ele>257</ele>
        <time>2015-03-24T13:02:40Z</time>
      </trkpt>
      <trkpt lat="43.50831" lon="6.3096">
        <ele>257.79</ele>
        <time>2015-03-24T13:02:55Z</time>
      </trkpt>
      <trkpt lat="43.50841" lon="6.30938">
        <ele>258.51</ele>
        <time>2015-03-24T13:03:12Z</time>
      </trkpt>
      <trkpt lat="43.50849" lon="6.30914">
        <ele>257.94</ele>
        <time>2015-03-24T13:03:29Z</time>
      </trkpt>
      <trkpt lat="43.50857" lon="6.30892">
        <ele>257.81</ele>
        <time>2015-03-24T13:03:44Z</time>
      </trkpt>
      <trkpt lat="43.50866" lon="6.30869">
        <ele>258.35</ele>
        <time>2015-03-24T13:03:58Z</time>
      </trkpt>
      <trkpt lat="43.50876" lon="6.30847">
        <ele>259.01</ele>
        <time>2015-03-24T13:04:15Z</time>
      </trkpt>
      <trkpt lat="43.50885" lon="6.30826">
        <ele>258.22</ele>
        <time>2015-03-24T13:04:32Z</time>
      </trkpt>
      <trkpt lat="43.50896" lon="6.30805">
        <ele>256.88</ele>
        <time>2015-03-24T13:04:50Z</time>
      </trkpt>
      <trkpt lat="43.50905" lon="6.30784">
        <ele>255.74</ele>
        <time>2015-03-24T13:05:05Z</time>
      </trkpt>
      <trkpt lat="43.50912" lon="6.30761">
        <ele>254.92</ele>
        <time>2015-03-24T13:05:17Z</time>
      </trkpt>
      <trkpt lat="43.50922" lon="6.30739">
        <ele>254.05</ele>
        <time>2015-03-24T13:05:34Z</time>
      </trkpt>
      <trkpt lat="43.50928" lon="6.30716">
        <ele>253.43</ele>
        <time>2015-03-24T13:05:52Z</time>
      </trkpt>
      <trkpt lat="43.50939" lon="6.30695">
        <ele>252.46</ele>
        <time>2015-03-24T13:06:08Z</time>
      </trkpt>
      <trkpt lat="43.5095" lon="6.30674">
        <ele>251.79</ele>
        <time>2015-03-24T13:06:27Z</time>
      </trkpt>
      <trkpt lat="43.50955" lon="6.3065">
        <ele>251.32</ele>
        <time>2015-03-24T13:06:40Z</time>
      </trkpt>
      <trkpt lat="43.50959" lon="6.30624">
        <ele>252.95</ele>
        <time>2015-03-24T13:06:52Z</time>
      </trkpt>
      <trkpt lat="43.50971" lon="6.30603">
        <ele>255.41</ele>
        <time>2015-03-24T13:07:10Z</time>
      </trkpt>
      <trkpt lat="43.50985" lon="6.30584">
        <ele>256.49</ele>
        <time>2015-03-24T13:07:25Z</time>
      </trkpt>
      <trkpt lat="43.50997" lon="6.30565">
        <ele>257.76</ele>
        <time>2015-03-24T13:07:42Z</time>
      </trkpt>
      <trkpt lat="43.51011" lon="6.30548">
        <ele>258.66</ele>
        <time>2015-03-24T13:08:00Z</time>
      </trkpt>
      <trkpt lat="43.51024" lon="6.30529">
        <ele>260.39</ele>
        <time>2015-03-24T13:08:13Z</time>
      </trkpt>
      <trkpt lat="43.51036" lon="6.30511">
        <ele>261.88</ele>
        <time>2015-03-24T13:08:29Z</time>
      </trkpt>
      <trkpt lat="43.51046" lon="6.30489">
        <ele>263.38</ele>
        <time>2015-03-24T13:08:42Z</time>
      </trkpt>
      <trkpt lat="43.5106" lon="6.30471">
        <ele>265</ele>
        <time>2015-03-24T13:09:07Z</time>
      </trkpt>
      <trkpt lat="43.51075" lon="6.30455">
        <ele>265.38</ele>
        <time>2015-03-24T13:09:20Z</time>
      </trkpt>
      <trkpt lat="43.5109" lon="6.3044">
        <ele>265.06</ele>
        <time>2015-03-24T13:09:34Z</time>
      </trkpt>
      <trkpt lat="43.51102" lon="6.30421">
        <ele>262.99</ele>
        <time>2015-03-24T13:09:51Z</time>
      </trkpt>
      <trkpt lat="43.51114" lon="6.30403">
        <ele>262.36</ele>
        <time>2015-03-24T13:10:02Z</time>
      </trkpt>
      <trkpt lat="43.51126" lon="6.30383">
        <ele>261.72</ele>
        <time>2015-03-24T13:10:20Z</time>
      </trkpt>
      <trkpt lat="43.51141" lon="6.30366">
        <ele>260.55</ele>
        <time>2015-03-24T13:10:35Z</time>
      </trkpt>
      <trkpt lat="43.51154" lon="6.30347">
        <ele>258.66</ele>
        <time>2015-03-24T13:10:51Z</time>
      </trkpt>
      <trkpt lat="43.51169" lon="6.30333">
        <ele>256.63</ele>
        <time>2015-03-24T13:11:07Z</time>
      </trkpt>
      <trkpt lat="43.51185" lon="6.3032">
        <ele>254.44</ele>
        <time>2015-03-24T13:11:22Z</time>
      </trkpt>
      <trkpt lat="43.51199" lon="6.30303">
        <ele>253.66</ele>
        <time>2015-03-24T13:11:36Z</time>
      </trkpt>
      <trkpt lat="43.51214" lon="6.30288">
        <ele>254.08</ele>
        <time>2015-03-24T13:11:51Z</time>
      </trkpt>
      <trkpt lat="43.51229" lon="6.30273">
        <ele>254.5</ele>
        <time>2015-03-24T13:12:07Z</time>
      </trkpt>
      <trkpt lat="43.51245" lon="6.30261">
        <ele>254.74</ele>
        <time>2015-03-24T13:12:23Z</time>
      </trkpt>
      <trkpt lat="43.5126" lon="6.30242">
        <ele>253.85</ele>
        <time>2015-03-24T13:12:51Z</time>
      </trkpt>
      <trkpt lat="43.51272" lon="6.30225">
        <ele>254.81</ele>
        <time>2015-03-24T13:13:03Z</time>
      </trkpt>
      <trkpt lat="43.51285" lon="6.30205">
        <ele>254.42</ele>
        <time>2015-03-24T13:13:21Z</time>
      </trkpt>
      <trkpt lat="43.51297" lon="6.30187">
        <ele>253.43</ele>
        <time>2015-03-24T13:13:36Z</time>
      </trkpt>
      <trkpt lat="43.51309" lon="6.30166">
        <ele>252.73</ele>
        <time>2015-03-24T13:13:51Z</time>
      </trkpt>
      <trkpt lat="43.51318" lon="6.30143">
        <ele>253.78</ele>
        <time>2015-03-24T13:14:08Z</time>
      </trkpt>
      <trkpt lat="43.51325" lon="6.3012">
        <ele>253.76</ele>
        <time>2015-03-24T13:14:21Z</time>
      </trkpt>
      <trkpt lat="43.51335" lon="6.30099">
        <ele>253.25</ele>
        <time>2015-03-24T13:14:35Z</time>
      </trkpt>
      <trkpt lat="43.51344" lon="6.30076">
        <ele>253.27</ele>
        <time>2015-03-24T13:14:52Z</time>
      </trkpt>
      <trkpt lat="43.51354" lon="6.30054">
        <ele>255.07</ele>
        <time>2015-03-24T13:15:08Z</time>
      </trkpt>
      <trkpt lat="43.51365" lon="6.30035">
        <ele>255.55</ele>
        <time>2015-03-24T13:15:22Z</time>
      </trkpt>
      <trkpt lat="43.51375" lon="6.30013">
        <ele>256.73</ele>
        <time>2015-03-24T13:15:34Z</time>
      </trkpt>
      <trkpt lat="43.51382" lon="6.2999">
        <ele>258.1</ele>
        <time>2015-03-24T13:15:49Z</time>
      </trkpt>
      <trkpt lat="43.51395" lon="6.29971">
        <ele>259.26</ele>
        <time>2015-03-24T13:16:04Z</time>
      </trkpt>
      <trkpt lat="43.5141" lon="6.29955">
        <ele>260.06</ele>
        <time>2015-03-24T13:16:19Z</time>
      </trkpt>
      <trkpt lat="43.51421" lon="6.29936">
        <ele>258.3</ele>
        <time>2015-03-24T13:16:35Z</time>
      </trkpt>
      <trkpt lat="43.51436" lon="6.29921">
        <ele>257.62</ele>
        <time>2015-03-24T13:16:52Z</time>
      </trkpt>
      <trkpt lat="43.51451" lon="6.29907">
        <ele>256.18</ele>
        <time>2015-03-24T13:17:05Z</time>
      </trkpt>
      <trkpt lat="43.51465" lon="6.29892">
        <ele>255.01</ele>
        <time>2015-03-24T13:17:24Z</time>
      </trkpt>
      <trkpt lat="43.51482" lon="6.29883">
        <ele>255.41</ele>
        <time>2015-03-24T13:17:38Z</time>
      </trkpt>
      <trkpt lat="43.515" lon="6.29875">
        <ele>256.51</ele>
        <time>2015-03-24T13:17:51Z</time>
      </trkpt>
      <trkpt lat="43.51519" lon="6.29872">
        <ele>257.33</ele>
        <time>2015-03-24T13:18:07Z</time>
      </trkpt>
      <trkpt lat="43.51536" lon="6.29878">
        <ele>255.24</ele>
        <time>2015-03-24T13:18:26Z</time>
      </trkpt>
      <trkpt lat="43.51554" lon="6.29868">
        <ele>253.93</ele>
        <time>2015-03-24T13:19:13Z</time>
      </trkpt>
      <trkpt lat="43.51569" lon="6.29854">
        <ele>253.58</ele>
        <time>2015-03-24T13:19:25Z</time>
      </trkpt>
      <trkpt lat="43.51582" lon="6.29837">
        <ele>252.28</ele>
        <time>2015-03-24T13:19:44Z</time>
      </trkpt>
      <trkpt lat="43.51599" lon="6.29826">
        <ele>251.89</ele>
        <time>2015-03-24T13:20:04Z</time>
      </trkpt>
      <trkpt lat="43.51613" lon="6.2984">
        <ele>250.23</ele>
        <time>2015-03-24T13:20:35Z</time>
      </trkpt>
      <trkpt lat="43.51597" lon="6.29829">
        <ele>248.98</ele>
        <time>2015-03-24T13:21:37Z</time>
      </trkpt>
      <trkpt lat="43.51615" lon="6.2983">
        <ele>245.54</ele>
        <time>2015-03-24T13:25:16Z</time>
      </trkpt>
      <trkpt lat="43.51627" lon="6.29849">
        <ele>247.24</ele>
        <time>2015-03-24T13:25:29Z</time>
      </trkpt>
      <trkpt lat="43.5164" lon="6.29867">
        <ele>249.14</ele>
        <time>2015-03-24T13:25:47Z</time>
      </trkpt>
      <trkpt lat="43.51656" lon="6.29883">
        <ele>250.63</ele>
        <time>2015-03-24T13:26:02Z</time>
      </trkpt>
      <trkpt lat="43.51665" lon="6.29905">
        <ele>252.31</ele>
        <time>2015-03-24T13:26:17Z</time>
      </trkpt>
      <trkpt lat="43.51682" lon="6.29916">
        <ele>255.14</ele>
        <time>2015-03-24T13:26:37Z</time>
      </trkpt>
      <trkpt lat="43.517" lon="6.29917">
        <ele>256.08</ele>
        <time>2015-03-24T13:26:52Z</time>
      </trkpt>
      <trkpt lat="43.51718" lon="6.29924">
        <ele>255.78</ele>
        <time>2015-03-24T13:27:11Z</time>
      </trkpt>
      <trkpt lat="43.51736" lon="6.29929">
        <ele>254.8</ele>
        <time>2015-03-24T13:27:28Z</time>
      </trkpt>
      <trkpt lat="43.51752" lon="6.29941">
        <ele>255.41</ele>
        <time>2015-03-24T13:27:43Z</time>
      </trkpt>
      <trkpt lat="43.5177" lon="6.29948">
        <ele>256.3</ele>
        <time>2015-03-24T13:28:01Z</time>
      </trkpt>
      <trkpt lat="43.51787" lon="6.2996">
        <ele>255.92</ele>
        <time>2015-03-24T13:28:19Z</time>
      </trkpt>
      <trkpt lat="43.51805" lon="6.29963">
        <ele>256.32</ele>
        <time>2015-03-24T13:28:38Z</time>
      </trkpt>
      <trkpt lat="43.51823" lon="6.29963">
        <ele>260.31</ele>
        <time>2015-03-24T13:29:06Z</time>
      </trkpt>
      <trkpt lat="43.51841" lon="6.29964">
        <ele>262.27</ele>
        <time>2015-03-24T13:29:24Z</time>
      </trkpt>
      <trkpt lat="43.51859" lon="6.29968">
        <ele>263.27</ele>
        <time>2015-03-24T13:29:38Z</time>
      </trkpt>
      <trkpt lat="43.51878" lon="6.2997">
        <ele>264.33</ele>
        <time>2015-03-24T13:30:00Z</time>
      </trkpt>
      <trkpt lat="43.51896" lon="6.29974">
        <ele>264.61</ele>
        <time>2015-03-24T13:30:20Z</time>
      </trkpt>
      <trkpt lat="43.51914" lon="6.29981">
        <ele>264.39</ele>
        <time>2015-03-24T13:30:35Z</time>
      </trkpt>
      <trkpt lat="43.51931" lon="6.2999">
        <ele>265.2</ele>
        <time>2015-03-24T13:30:52Z</time>
      </trkpt>
      <trkpt lat="43.51949" lon="6.29996">
        <ele>264.79</ele>
        <time>2015-03-24T13:31:13Z</time>
      </trkpt>
      <trkpt lat="43.51966" lon="6.30006">
        <ele>264.71</ele>
        <time>2015-03-24T13:31:31Z</time>
      </trkpt>
      <trkpt lat="43.51983" lon="6.30019">
        <ele>264.79</ele>
        <time>2015-03-24T13:31:47Z</time>
      </trkpt>
      <trkpt lat="43.51999" lon="6.30029">
        <ele>265.08</ele>
        <time>2015-03-24T13:32:00Z</time>
      </trkpt>
      <trkpt lat="43.52018" lon="6.30039">
        <ele>263.25</ele>
        <time>2015-03-24T13:32:19Z</time>
      </trkpt>
      <trkpt lat="43.52036" lon="6.30049">
        <ele>261.77</ele>
        <time>2015-03-24T13:32:38Z</time>
      </trkpt>
      <trkpt lat="43.52044" lon="6.30072">
        <ele>260.74</ele>
        <time>2015-03-24T13:33:20Z</time>
      </trkpt>
      <trkpt lat="43.52039" lon="6.30096">
        <ele>259.7</ele>
        <time>2015-03-24T13:36:25Z</time>
      </trkpt>
      <trkpt lat="43.52039" lon="6.30122">
        <ele>260.14</ele>
        <time>2015-03-24T13:36:57Z</time>
      </trkpt>
      <trkpt lat="43.52033" lon="6.30146">
        <ele>261.36</ele>
        <time>2015-03-24T13:37:16Z</time>
      </trkpt>
      <trkpt lat="43.52028" lon="6.30171">
        <ele>262.15</ele>
        <time>2015-03-24T13:37:34Z</time>
      </trkpt>
      <trkpt lat="43.52024" lon="6.30195">
        <ele>263.31</ele>
        <time>2015-03-24T13:37:55Z</time>
      </trkpt>
      <trkpt lat="43.52024" lon="6.30221">
        <ele>264.37</ele>
        <time>2015-03-24T13:38:12Z</time>
      </trkpt>
      <trkpt lat="43.52031" lon="6.30244">
        <ele>265.73</ele>
        <time>2015-03-24T13:38:32Z</time>
      </trkpt>
      <trkpt lat="43.52045" lon="6.3026">
        <ele>267.3</ele>
        <time>2015-03-24T13:38:53Z</time>
      </trkpt>
      <trkpt lat="43.52061" lon="6.30274">
        <ele>268.86</ele>
        <time>2015-03-24T13:39:11Z</time>
      </trkpt>
      <trkpt lat="43.52077" lon="6.30287">
        <ele>270.71</ele>
        <time>2015-03-24T13:39:30Z</time>
      </trkpt>
      <trkpt lat="43.52094" lon="6.30297">
        <ele>273.7</ele>
        <time>2015-03-24T13:39:53Z</time>
      </trkpt>
      <trkpt lat="43.52108" lon="6.30314">
        <ele>275.94</ele>
        <time>2015-03-24T13:40:09Z</time>
      </trkpt>
      <trkpt lat="43.52123" lon="6.30328">
        <ele>274.17</ele>
        <time>2015-03-24T13:40:36Z</time>
      </trkpt>
      <trkpt lat="43.5212" lon="6.30353">
        <ele>274.67</ele>
        <time>2015-03-24T13:40:58Z</time>
      </trkpt>
      <trkpt lat="43.52116" lon="6.30378">
        <ele>276.59</ele>
        <time>2015-03-24T13:41:20Z</time>
      </trkpt>
      <trkpt lat="43.52114" lon="6.30403">
        <ele>278.73</ele>
        <time>2015-03-24T13:41:45Z</time>
      </trkpt>
      <trkpt lat="43.52119" lon="6.30428">
        <ele>280.13</ele>
        <time>2015-03-24T13:42:05Z</time>
      </trkpt>
      <trkpt lat="43.52118" lon="6.30452">
        <ele>281.91</ele>
        <time>2015-03-24T13:42:20Z</time>
      </trkpt>
      <trkpt lat="43.52123" lon="6.30477">
        <ele>283.07</ele>
        <time>2015-03-24T13:42:34Z</time>
      </trkpt>
      <trkpt lat="43.52131" lon="6.30501">
        <ele>288.02</ele>
        <time>2015-03-24T13:43:04Z</time>
      </trkpt>
      <trkpt lat="43.52144" lon="6.30519">
        <ele>289.08</ele>
        <time>2015-03-24T13:43:21Z</time>
      </trkpt>
      <trkpt lat="43.52161" lon="6.3053">
        <ele>288.32</ele>
        <time>2015-03-24T13:43:40Z</time>
      </trkpt>
      <trkpt lat="43.52172" lon="6.30551">
        <ele>287.49</ele>
        <time>2015-03-24T13:43:57Z</time>
      </trkpt>
      <trkpt lat="43.5218" lon="6.30573">
        <ele>289.54</ele>
        <time>2015-03-24T13:44:10Z</time>
      </trkpt>
      <trkpt lat="43.52193" lon="6.30593">
        <ele>294.04</ele>
        <time>2015-03-24T13:44:36Z</time>
      </trkpt>
      <trkpt lat="43.52209" lon="6.30605">
        <ele>295.35</ele>
        <time>2015-03-24T13:44:53Z</time>
      </trkpt>
      <trkpt lat="43.52224" lon="6.3062">
        <ele>297.94</ele>
        <time>2015-03-24T13:45:16Z</time>
      </trkpt>
      <trkpt lat="43.5224" lon="6.30632">
        <ele>300.32</ele>
        <time>2015-03-24T13:45:35Z</time>
      </trkpt>
      <trkpt lat="43.52252" lon="6.30651">
        <ele>304.11</ele>
        <time>2015-03-24T13:45:59Z</time>
      </trkpt>
      <trkpt lat="43.52266" lon="6.30667">
        <ele>305.18</ele>
        <time>2015-03-24T13:46:21Z</time>
      </trkpt>
      <trkpt lat="43.52276" lon="6.3069">
        <ele>307.07</ele>
        <time>2015-03-24T13:46:47Z</time>
      </trkpt>
      <trkpt lat="43.52287" lon="6.30711">
        <ele>307.62</ele>
        <time>2015-03-24T13:47:19Z</time>
      </trkpt>
      <trkpt lat="43.52288" lon="6.30736">
        <ele>307.72</ele>
        <time>2015-03-24T13:47:39Z</time>
      </trkpt>
      <trkpt lat="43.52288" lon="6.30761">
        <ele>309.25</ele>
        <time>2015-03-24T13:47:59Z</time>
      </trkpt>
      <trkpt lat="43.52291" lon="6.30786">
        <ele>312.28</ele>
        <time>2015-03-24T13:48:22Z</time>
      </trkpt>
      <trkpt lat="43.52296" lon="6.30809">
        <ele>314.01</ele>
        <time>2015-03-24T13:50:20Z</time>
      </trkpt>
      <trkpt lat="43.52283" lon="6.30828">
        <ele>312.67</ele>
        <time>2015-03-24T13:52:49Z</time>
      </trkpt>
      <trkpt lat="43.52269" lon="6.30845">
        <ele>312.24</ele>
        <time>2015-03-24T13:53:04Z</time>
      </trkpt>
      <trkpt lat="43.52258" lon="6.30866">
        <ele>312.49</ele>
        <time>2015-03-24T13:53:19Z</time>
      </trkpt>
      <trkpt lat="43.5225" lon="6.30889">
        <ele>312.38</ele>
        <time>2015-03-24T13:53:33Z</time>
      </trkpt>
      <trkpt lat="43.5224" lon="6.3091">
        <ele>312.86</ele>
        <time>2015-03-24T13:53:52Z</time>
      </trkpt>
      <trkpt lat="43.5223" lon="6.30932">
        <ele>313.94</ele>
        <time>2015-03-24T13:54:12Z</time>
      </trkpt>
      <trkpt lat="43.52221" lon="6.30954">
        <ele>315.08</ele>
        <time>2015-03-24T13:54:27Z</time>
      </trkpt>
      <trkpt lat="43.52213" lon="6.30976">
        <ele>315.56</ele>
        <time>2015-03-24T13:54:41Z</time>
      </trkpt>
      <trkpt lat="43.52203" lon="6.30999">
        <ele>316.57</ele>
        <time>2015-03-24T13:54:56Z</time>
      </trkpt>
      <trkpt lat="43.52191" lon="6.3102">
        <ele>317.01</ele>
        <time>2015-03-24T13:55:12Z</time>
      </trkpt>
      <trkpt lat="43.52181" lon="6.31042">
        <ele>317.88</ele>
        <time>2015-03-24T13:55:30Z</time>
      </trkpt>
      <trkpt lat="43.5217" lon="6.31063">
        <ele>317.99</ele>
        <time>2015-03-24T13:55:45Z</time>
      </trkpt>
      <trkpt lat="43.52158" lon="6.31082">
        <ele>317.77</ele>
        <time>2015-03-24T13:55:59Z</time>
      </trkpt>
      <trkpt lat="43.52143" lon="6.31097">
        <ele>319.13</ele>
        <time>2015-03-24T13:56:20Z</time>
      </trkpt>
      <trkpt lat="43.52128" lon="6.31112">
        <ele>319.21</ele>
        <time>2015-03-24T13:56:37Z</time>
      </trkpt>
      <trkpt lat="43.52114" lon="6.31128">
        <ele>320.28</ele>
        <time>2015-03-24T13:56:53Z</time>
      </trkpt>
      <trkpt lat="43.52096" lon="6.31137">
        <ele>319.74</ele>
        <time>2015-03-24T13:57:09Z</time>
      </trkpt>
      <trkpt lat="43.52079" lon="6.31145">
        <ele>319.12</ele>
        <time>2015-03-24T13:57:34Z</time>
      </trkpt>
      <trkpt lat="43.52073" lon="6.31169">
        <ele>317.4</ele>
        <time>2015-03-24T13:57:49Z</time>
      </trkpt>
      <trkpt lat="43.52064" lon="6.31191">
        <ele>315.31</ele>
        <time>2015-03-24T13:58:04Z</time>
      </trkpt>
      <trkpt lat="43.52048" lon="6.31204">
        <ele>313.1</ele>
        <time>2015-03-24T14:01:37Z</time>
      </trkpt>
      <trkpt lat="43.52038" lon="6.31226">
        <ele>312.62</ele>
        <time>2015-03-24T14:01:59Z</time>
      </trkpt>
      <trkpt lat="43.52025" lon="6.31245">
        <ele>312.07</ele>
        <time>2015-03-24T14:02:19Z</time>
      </trkpt>
      <trkpt lat="43.52007" lon="6.31243">
        <ele>309.48</ele>
        <time>2015-03-24T14:02:41Z</time>
      </trkpt>
      <trkpt lat="43.51991" lon="6.31229">
        <ele>306.75</ele>
        <time>2015-03-24T14:02:59Z</time>
      </trkpt>
      <trkpt lat="43.51976" lon="6.31214">
        <ele>305.02</ele>
        <time>2015-03-24T14:03:17Z</time>
      </trkpt>
      <trkpt lat="43.51958" lon="6.31215">
        <ele>305.08</ele>
        <time>2015-03-24T14:03:37Z</time>
      </trkpt>
      <trkpt lat="43.51939" lon="6.31223">
        <ele>304.43</ele>
        <time>2015-03-24T14:03:51Z</time>
      </trkpt>
      <trkpt lat="43.51921" lon="6.31224">
        <ele>303.44</ele>
        <time>2015-03-24T14:04:05Z</time>
      </trkpt>
      <trkpt lat="43.51902" lon="6.31225">
        <ele>302.64</ele>
        <time>2015-03-24T14:04:20Z</time>
      </trkpt>
      <trkpt lat="43.51883" lon="6.31226">
        <ele>301.67</ele>
        <time>2015-03-24T14:04:35Z</time>
      </trkpt>
      <trkpt lat="43.51864" lon="6.31229">
        <ele>300.71</ele>
        <time>2015-03-24T14:04:49Z</time>
      </trkpt>
      <trkpt lat="43.51846" lon="6.31222">
        <ele>299.36</ele>
        <time>2015-03-24T14:05:02Z</time>
      </trkpt>
      <trkpt lat="43.51828" lon="6.31216">
        <ele>298.91</ele>
        <time>2015-03-24T14:05:21Z</time>
      </trkpt>
      <trkpt lat="43.5181" lon="6.31212">
        <ele>297.11</ele>
        <time>2015-03-24T14:05:42Z</time>
      </trkpt>
      <trkpt lat="43.51797" lon="6.31194">
        <ele>295.38</ele>
        <time>2015-03-24T14:06:05Z</time>
      </trkpt>
      <trkpt lat="43.51783" lon="6.31178">
        <ele>294.71</ele>
        <time>2015-03-24T14:06:19Z</time>
      </trkpt>
      <trkpt lat="43.51768" lon="6.31163">
        <ele>294.67</ele>
        <time>2015-03-24T14:06:37Z</time>
      </trkpt>
      <trkpt lat="43.51753" lon="6.31148">
        <ele>294.15</ele>
        <time>2015-03-24T14:06:52Z</time>
      </trkpt>
      <trkpt lat="43.51738" lon="6.31133">
        <ele>294.73</ele>
        <time>2015-03-24T14:07:06Z</time>
      </trkpt>
      <trkpt lat="43.51722" lon="6.3112">
        <ele>294.14</ele>
        <time>2015-03-24T14:07:25Z</time>
      </trkpt>
      <trkpt lat="43.51704" lon="6.31115">
        <ele>294.87</ele>
        <time>2015-03-24T14:07:41Z</time>
      </trkpt>
      <trkpt lat="43.51685" lon="6.3111">
        <ele>294.09</ele>
        <time>2015-03-24T14:08:01Z</time>
      </trkpt>
      <trkpt lat="43.51667" lon="6.31103">
        <ele>294.18</ele>
        <time>2015-03-24T14:08:17Z</time>
      </trkpt>
      <trkpt lat="43.51651" lon="6.31114">
        <ele>292.37</ele>
        <time>2015-03-24T14:08:36Z</time>
      </trkpt>
      <trkpt lat="43.51635" lon="6.31126">
        <ele>289.56</ele>
        <time>2015-03-24T14:08:52Z</time>
      </trkpt>
      <trkpt lat="43.51622" lon="6.31143">
        <ele>287.22</ele>
        <time>2015-03-24T14:09:14Z</time>
      </trkpt>
      <trkpt lat="43.51625" lon="6.31168">
        <ele>284.98</ele>
        <time>2015-03-24T14:09:29Z</time>
      </trkpt>
      <trkpt lat="43.5163" lon="6.31192">
        <ele>285.89</ele>
        <time>2015-03-24T14:09:47Z</time>
      </trkpt>
      <trkpt lat="43.51629" lon="6.31218">
        <ele>286.74</ele>
        <time>2015-03-24T14:10:05Z</time>
      </trkpt>
      <trkpt lat="43.51628" lon="6.31243">
        <ele>287.42</ele>
        <time>2015-03-24T14:10:23Z</time>
      </trkpt>
      <trkpt lat="43.51634" lon="6.31267">
        <ele>288.57</ele>
        <time>2015-03-24T14:10:37Z</time>
      </trkpt>
      <trkpt lat="43.51625" lon="6.31289">
        <ele>288.66</ele>
        <time>2015-03-24T14:11:06Z</time>
      </trkpt>
      <trkpt lat="43.51611" lon="6.31305">
        <ele>287.43</ele>
        <time>2015-03-24T14:11:24Z</time>
      </trkpt>
      <trkpt lat="43.51599" lon="6.31325">
        <ele>287.33</ele>
        <time>2015-03-24T14:11:39Z</time>
      </trkpt>
      <trkpt lat="43.51589" lon="6.31346">
        <ele>286.44</ele>
        <time>2015-03-24T14:11:54Z</time>
      </trkpt>
      <trkpt lat="43.51586" lon="6.31372">
        <ele>285.07</ele>
        <time>2015-03-24T14:12:13Z</time>
      </trkpt>
      <trkpt lat="43.51586" lon="6.31397">
        <ele>283.73</ele>
        <time>2015-03-24T14:12:26Z</time>
      </trkpt>
      <trkpt lat="43.51584" lon="6.31422">
        <ele>284.32</ele>
        <time>2015-03-24T14:12:45Z</time>
      </trkpt>
      <trkpt lat="43.51592" lon="6.31445">
        <ele>286.04</ele>
        <time>2015-03-24T14:12:59Z</time>
      </trkpt>
      <trkpt lat="43.51605" lon="6.31463">
        <ele>288.77</ele>
        <time>2015-03-24T14:13:31Z</time>
      </trkpt>
      <trkpt lat="43.51618" lon="6.31481">
        <ele>289.4</ele>
        <time>2015-03-24T14:13:52Z</time>
      </trkpt>
      <trkpt lat="43.5163" lon="6.31501">
        <ele>289.32</ele>
        <time>2015-03-24T14:14:09Z</time>
      </trkpt>
      <trkpt lat="43.51641" lon="6.31522">
        <ele>289.35</ele>
        <time>2015-03-24T14:14:28Z</time>
      </trkpt>
      <trkpt lat="43.51653" lon="6.31541">
        <ele>291.46</ele>
        <time>2015-03-24T14:14:45Z</time>
      </trkpt>
      <trkpt lat="43.51665" lon="6.3156">
        <ele>293.03</ele>
        <time>2015-03-24T14:15:04Z</time>
      </trkpt>
      <trkpt lat="43.51676" lon="6.31581">
        <ele>293.25</ele>
        <time>2015-03-24T14:15:21Z</time>
      </trkpt>
      <trkpt lat="43.51687" lon="6.31601">
        <ele>294.17</ele>
        <time>2015-03-24T14:15:39Z</time>
      </trkpt>
      <trkpt lat="43.51702" lon="6.31614">
        <ele>295.94</ele>
        <time>2015-03-24T14:16:02Z</time>
      </trkpt>
      <trkpt lat="43.51717" lon="6.31629">
        <ele>293.16</ele>
        <time>2015-03-24T14:16:23Z</time>
      </trkpt>
      <trkpt lat="43.51724" lon="6.31653">
        <ele>294.53</ele>
        <time>2015-03-24T14:16:43Z</time>
      </trkpt>
      <trkpt lat="43.51726" lon="6.31679">
        <ele>301.88</ele>
        <time>2015-03-24T14:20:12Z</time>
      </trkpt>
      <trkpt lat="43.51722" lon="6.31703">
        <ele>303.3</ele>
        <time>2015-03-24T14:20:28Z</time>
      </trkpt>
      <trkpt lat="43.51721" lon="6.31729">
        <ele>302.89</ele>
        <time>2015-03-24T14:20:50Z</time>
      </trkpt>
      <trkpt lat="43.51717" lon="6.31755">
        <ele>300.92</ele>
        <time>2015-03-24T14:21:09Z</time>
      </trkpt>
      <trkpt lat="43.51717" lon="6.3178">
        <ele>297.41</ele>
        <time>2015-03-24T14:21:26Z</time>
      </trkpt>
      <trkpt lat="43.51712" lon="6.31805">
        <ele>292.94</ele>
        <time>2015-03-24T14:21:48Z</time>
      </trkpt>
      <trkpt lat="43.5171" lon="6.31831">
        <ele>289.81</ele>
        <time>2015-03-24T14:22:09Z</time>
      </trkpt>
      <trkpt lat="43.51706" lon="6.31856">
        <ele>289.14</ele>
        <time>2015-03-24T14:22:24Z</time>
      </trkpt>
      <trkpt lat="43.51708" lon="6.31882">
        <ele>292.07</ele>
        <time>2015-03-24T14:22:37Z</time>
      </trkpt>
      <trkpt lat="43.51705" lon="6.31906">
        <ele>300.88</ele>
        <time>2015-03-24T14:23:05Z</time>
      </trkpt>
      <trkpt lat="43.51699" lon="6.31931">
        <ele>305.8</ele>
        <time>2015-03-24T14:23:22Z</time>
      </trkpt>
      <trkpt lat="43.51694" lon="6.31956">
        <ele>309.46</ele>
        <time>2015-03-24T14:23:47Z</time>
      </trkpt>
      <trkpt lat="43.51689" lon="6.3198">
        <ele>311.87</ele>
        <time>2015-03-24T14:24:03Z</time>
      </trkpt>
      <trkpt lat="43.5169" lon="6.32006">
        <ele>314.59</ele>
        <time>2015-03-24T14:25:14Z</time>
      </trkpt>
      <trkpt lat="43.51687" lon="6.32031">
        <ele>315.93</ele>
        <time>2015-03-24T14:25:33Z</time>
      </trkpt>
      <trkpt lat="43.51686" lon="6.32056">
        <ele>316.99</ele>
        <time>2015-03-24T14:25:57Z</time>
      </trkpt>
      <trkpt lat="43.51682" lon="6.32081">
        <ele>318.8</ele>
        <time>2015-03-24T14:26:23Z</time>
      </trkpt>
      <trkpt lat="43.51679" lon="6.32106">
        <ele>320.53</ele>
        <time>2015-03-24T14:26:41Z</time>
      </trkpt>
      <trkpt lat="43.51677" lon="6.32131">
        <ele>321.36</ele>
        <time>2015-03-24T14:27:03Z</time>
      </trkpt>
      <trkpt lat="43.51678" lon="6.32157">
        <ele>321.93</ele>
        <time>2015-03-24T14:27:25Z</time>
      </trkpt>
      <trkpt lat="43.51681" lon="6.32182">
        <ele>323.44</ele>
        <time>2015-03-24T14:27:49Z</time>
      </trkpt>
      <trkpt lat="43.51688" lon="6.32206">
        <ele>323.7</ele>
        <time>2015-03-24T14:28:14Z</time>
      </trkpt>
      <trkpt lat="43.51695" lon="6.32228">
        <ele>322.6</ele>
        <time>2015-03-24T14:28:33Z</time>
      </trkpt>
      <trkpt lat="43.51702" lon="6.32252">
        <ele>322.28</ele>
        <time>2015-03-24T14:28:54Z</time>
      </trkpt>
      <trkpt lat="43.51712" lon="6.32273">
        <ele>321.85</ele>
        <time>2015-03-24T14:29:20Z</time>
      </trkpt>
      <trkpt lat="43.51726" lon="6.3229">
        <ele>321.08</ele>
        <time>2015-03-24T14:30:33Z</time>
      </trkpt>
      <trkpt lat="43.5174" lon="6.32306">
        <ele>321.31</ele>
        <time>2015-03-24T14:30:56Z</time>
      </trkpt>
      <trkpt lat="43.51755" lon="6.32321">
        <ele>321.42</ele>
        <time>2015-03-24T14:31:20Z</time>
      </trkpt>
      <trkpt lat="43.51772" lon="6.32328">
        <ele>321.47</ele>
        <time>2015-03-24T14:31:41Z</time>
      </trkpt>
      <trkpt lat="43.51775" lon="6.32354">
        <ele>325.51</ele>
        <time>2015-03-24T14:32:31Z</time>
      </trkpt>
      <trkpt lat="43.51775" lon="6.32379">
        <ele>324.53</ele>
        <time>2015-03-24T14:32:43Z</time>
      </trkpt>
      <trkpt lat="43.5176" lon="6.32395">
        <ele>321.7</ele>
        <time>2015-03-24T14:33:01Z</time>
      </trkpt>
      <trkpt lat="43.51752" lon="6.32418">
        <ele>320.48</ele>
        <time>2015-03-24T14:33:22Z</time>
      </trkpt>
      <trkpt lat="43.51744" lon="6.32441">
        <ele>320.16</ele>
        <time>2015-03-24T14:33:41Z</time>
      </trkpt>
      <trkpt lat="43.51741" lon="6.32465">
        <ele>320.98</ele>
        <time>2015-03-24T14:33:54Z</time>
      </trkpt>
      <trkpt lat="43.5175" lon="6.32487">
        <ele>322.11</ele>
        <time>2015-03-24T14:34:11Z</time>
      </trkpt>
      <trkpt lat="43.51756" lon="6.32512">
        <ele>320.59</ele>
        <time>2015-03-24T14:34:26Z</time>
      </trkpt>
      <trkpt lat="43.51751" lon="6.32538">
        <ele>320.52</ele>
        <time>2015-03-24T14:34:40Z</time>
      </trkpt>
      <trkpt lat="43.51747" lon="6.32563">
        <ele>321.73</ele>
        <time>2015-03-24T14:34:51Z</time>
      </trkpt>
      <trkpt lat="43.5174" lon="6.32587">
        <ele>323.03</ele>
        <time>2015-03-24T14:35:05Z</time>
      </trkpt>
      <trkpt lat="43.51733" lon="6.32611">
        <ele>324.23</ele>
        <time>2015-03-24T14:35:19Z</time>
      </trkpt>
      <trkpt lat="43.51726" lon="6.32636">
        <ele>324.94</ele>
        <time>2015-03-24T14:35:35Z</time>
      </trkpt>
      <trkpt lat="43.5171" lon="6.32623">
        <ele>323.94</ele>
        <time>2015-03-24T14:36:12Z</time>
      </trkpt>
      <trkpt lat="43.51702" lon="6.326">
        <ele>324.83</ele>
        <time>2015-03-24T14:36:27Z</time>
      </trkpt>
      <trkpt lat="43.51692" lon="6.32579">
        <ele>325.85</ele>
        <time>2015-03-24T14:36:41Z</time>
      </trkpt>
      <trkpt lat="43.51678" lon="6.32563">
        <ele>327.44</ele>
        <time>2015-03-24T14:36:56Z</time>
      </trkpt>
      <trkpt lat="43.51659" lon="6.3256">
        <ele>327.22</ele>
        <time>2015-03-24T14:37:15Z</time>
      </trkpt>
      <trkpt lat="43.5164" lon="6.32559">
        <ele>325.35</ele>
        <time>2015-03-24T14:37:39Z</time>
      </trkpt>
      <trkpt lat="43.51624" lon="6.32547">
        <ele>326.64</ele>
        <time>2015-03-24T14:37:55Z</time>
      </trkpt>
      <trkpt lat="43.5161" lon="6.3253">
        <ele>327.11</ele>
        <time>2015-03-24T14:38:11Z</time>
      </trkpt>
      <trkpt lat="43.51593" lon="6.32521">
        <ele>328.02</ele>
        <time>2015-03-24T14:38:36Z</time>
      </trkpt>
      <trkpt lat="43.51576" lon="6.3251">
        <ele>327.85</ele>
        <time>2015-03-24T14:38:50Z</time>
      </trkpt>
      <trkpt lat="43.5156" lon="6.325">
        <ele>326.65</ele>
        <time>2015-03-24T14:39:08Z</time>
      </trkpt>
      <trkpt lat="43.51546" lon="6.3248">
        <ele>325.07</ele>
        <time>2015-03-24T14:39:28Z</time>
      </trkpt>
      <trkpt lat="43.51536" lon="6.32459">
        <ele>324.4</ele>
        <time>2015-03-24T14:39:49Z</time>
      </trkpt>
      <trkpt lat="43.51522" lon="6.32442">
        <ele>323.44</ele>
        <time>2015-03-24T14:40:05Z</time>
      </trkpt>
      <trkpt lat="43.51512" lon="6.32419">
        <ele>322.29</ele>
        <time>2015-03-24T14:40:25Z</time>
      </trkpt>
      <trkpt lat="43.51504" lon="6.32395">
        <ele>322.06</ele>
        <time>2015-03-24T14:40:40Z</time>
      </trkpt>
      <trkpt lat="43.51496" lon="6.32373">
        <ele>323.98</ele>
        <time>2015-03-24T14:40:58Z</time>
      </trkpt>
      <trkpt lat="43.5149" lon="6.32349">
        <ele>323.23</ele>
        <time>2015-03-24T14:41:18Z</time>
      </trkpt>
      <trkpt lat="43.51481" lon="6.32326">
        <ele>323.05</ele>
        <time>2015-03-24T14:41:35Z</time>
      </trkpt>
      <trkpt lat="43.51474" lon="6.32302">
        <ele>322.26</ele>
        <time>2015-03-24T14:41:51Z</time>
      </trkpt>
      <trkpt lat="43.51467" lon="6.32279">
        <ele>323.03</ele>
        <time>2015-03-24T14:42:11Z</time>
      </trkpt>
      <trkpt lat="43.51462" lon="6.32255">
        <ele>324.31</ele>
        <time>2015-03-24T14:42:26Z</time>
      </trkpt>
      <trkpt lat="43.51449" lon="6.32237">
        <ele>326</ele>
        <time>2015-03-24T14:42:43Z</time>
      </trkpt>
      <trkpt lat="43.51435" lon="6.3222">
        <ele>326.36</ele>
        <time>2015-03-24T14:43:03Z</time>
      </trkpt>
      <trkpt lat="43.51423" lon="6.32202">
        <ele>325.34</ele>
        <time>2015-03-24T14:43:21Z</time>
      </trkpt>
      <trkpt lat="43.51409" lon="6.32186">
        <ele>325.29</ele>
        <time>2015-03-24T14:43:38Z</time>
      </trkpt>
      <trkpt lat="43.51394" lon="6.32171">
        <ele>325.35</ele>
        <time>2015-03-24T14:43:56Z</time>
      </trkpt>
      <trkpt lat="43.51382" lon="6.32152">
        <ele>325.31</ele>
        <time>2015-03-24T14:44:15Z</time>
      </trkpt>
      <trkpt lat="43.51366" lon="6.32141">
        <ele>324.51</ele>
        <time>2015-03-24T14:44:31Z</time>
      </trkpt>
      <trkpt lat="43.51347" lon="6.32141">
        <ele>324.01</ele>
        <time>2015-03-24T14:44:46Z</time>
      </trkpt>
      <trkpt lat="43.51329" lon="6.32143">
        <ele>324.08</ele>
        <time>2015-03-24T14:45:05Z</time>
      </trkpt>
      <trkpt lat="43.51311" lon="6.32144">
        <ele>323.89</ele>
        <time>2015-03-24T14:45:21Z</time>
      </trkpt>
      <trkpt lat="43.51292" lon="6.32146">
        <ele>323.86</ele>
        <time>2015-03-24T14:45:38Z</time>
      </trkpt>
      <trkpt lat="43.51279" lon="6.32127">
        <ele>322.87</ele>
        <time>2015-03-24T14:46:02Z</time>
      </trkpt>
      <trkpt lat="43.51278" lon="6.32101">
        <ele>321.51</ele>
        <time>2015-03-24T14:46:24Z</time>
      </trkpt>
      <trkpt lat="43.51277" lon="6.32076">
        <ele>319.53</ele>
        <time>2015-03-24T14:46:44Z</time>
      </trkpt>
      <trkpt lat="43.51271" lon="6.32053">
        <ele>317.79</ele>
        <time>2015-03-24T14:47:04Z</time>
      </trkpt>
      <trkpt lat="43.51267" lon="6.32028">
        <ele>316.25</ele>
        <time>2015-03-24T14:47:26Z</time>
      </trkpt>
      <trkpt lat="43.51264" lon="6.32004">
        <ele>316.46</ele>
        <time>2015-03-24T14:47:41Z</time>
      </trkpt>
      <trkpt lat="43.5126" lon="6.31979">
        <ele>318.2</ele>
        <time>2015-03-24T14:47:58Z</time>
      </trkpt>
      <trkpt lat="43.51257" lon="6.31954">
        <ele>316.98</ele>
        <time>2015-03-24T14:48:19Z</time>
      </trkpt>
      <trkpt lat="43.51254" lon="6.31927">
        <ele>315.24</ele>
        <time>2015-03-24T14:48:37Z</time>
      </trkpt>
      <trkpt lat="43.51247" lon="6.31904">
        <ele>315.4</ele>
        <time>2015-03-24T14:48:50Z</time>
      </trkpt>
      <trkpt lat="43.51243" lon="6.31879">
        <ele>315.65</ele>
        <time>2015-03-24T14:49:08Z</time>
      </trkpt>
      <trkpt lat="43.51239" lon="6.31853">
        <ele>315.68</ele>
        <time>2015-03-24T14:49:28Z</time>
      </trkpt>
      <trkpt lat="43.51235" lon="6.31828">
        <ele>316.42</ele>
        <time>2015-03-24T14:49:47Z</time>
      </trkpt>
      <trkpt lat="43.51224" lon="6.31809">
        <ele>309.56</ele>
        <time>2015-03-24T14:52:36Z</time>
      </trkpt>
      <trkpt lat="43.51221" lon="6.31785">
        <ele>307.84</ele>
        <time>2015-03-24T14:53:39Z</time>
      </trkpt>
      <trkpt lat="43.51219" lon="6.3176">
        <ele>308.61</ele>
        <time>2015-03-24T14:54:02Z</time>
      </trkpt>
      <trkpt lat="43.51212" lon="6.31736">
        <ele>308.94</ele>
        <time>2015-03-24T14:54:26Z</time>
      </trkpt>
      <trkpt lat="43.51204" lon="6.31714">
        <ele>308.96</ele>
        <time>2015-03-24T14:54:44Z</time>
      </trkpt>
      <trkpt lat="43.512" lon="6.31689">
        <ele>308.93</ele>
        <time>2015-03-24T14:55:04Z</time>
      </trkpt>
      <trkpt lat="43.51196" lon="6.31664">
        <ele>307.63</ele>
        <time>2015-03-24T14:55:24Z</time>
      </trkpt>
      <trkpt lat="43.51191" lon="6.31639">
        <ele>306.37</ele>
        <time>2015-03-24T14:55:39Z</time>
      </trkpt>
      <trkpt lat="43.51186" lon="6.31615">
        <ele>306.31</ele>
        <time>2015-03-24T14:55:59Z</time>
      </trkpt>
      <trkpt lat="43.51179" lon="6.31592">
        <ele>305.85</ele>
        <time>2015-03-24T14:56:32Z</time>
      </trkpt>
      <trkpt lat="43.51173" lon="6.31567">
        <ele>307.59</ele>
        <time>2015-03-24T14:56:54Z</time>
      </trkpt>
      <trkpt lat="43.51169" lon="6.31543">
        <ele>306.21</ele>
        <time>2015-03-24T14:57:12Z</time>
      </trkpt>
      <trkpt lat="43.51168" lon="6.31517">
        <ele>307.09</ele>
        <time>2015-03-24T14:57:34Z</time>
      </trkpt>
      <trkpt lat="43.5116" lon="6.31495">
        <ele>306.81</ele>
        <time>2015-03-24T14:57:52Z</time>
      </trkpt>
      <trkpt lat="43.51158" lon="6.31468">
        <ele>305.45</ele>
        <time>2015-03-24T14:58:13Z</time>
      </trkpt>
      <trkpt lat="43.51156" lon="6.31443">
        <ele>303.88</ele>
        <time>2015-03-24T14:58:32Z</time>
      </trkpt>
      <trkpt lat="43.51148" lon="6.31419">
        <ele>301.89</ele>
        <time>2015-03-24T14:58:51Z</time>
      </trkpt>
      <trkpt lat="43.5114" lon="6.31395">
        <ele>300.38</ele>
        <time>2015-03-24T14:59:06Z</time>
      </trkpt>
      <trkpt lat="43.51136" lon="6.3137">
        <ele>300.53</ele>
        <time>2015-03-24T14:59:24Z</time>
      </trkpt>
      <trkpt lat="43.51132" lon="6.31346">
        <ele>299.99</ele>
        <time>2015-03-24T14:59:39Z</time>
      </trkpt>
      <trkpt lat="43.51128" lon="6.31321">
        <ele>300.13</ele>
        <time>2015-03-24T14:59:54Z</time>
      </trkpt>
      <trkpt lat="43.51126" lon="6.31296">
        <ele>299.86</ele>
        <time>2015-03-24T15:00:14Z</time>
      </trkpt>
      <trkpt lat="43.51119" lon="6.31271">
        <ele>299.59</ele>
        <time>2015-03-24T15:00:30Z</time>
      </trkpt>
      <trkpt lat="43.51114" lon="6.31247">
        <ele>300.19</ele>
        <time>2015-03-24T15:00:47Z</time>
      </trkpt>
      <trkpt lat="43.51106" lon="6.31224">
        <ele>299.08</ele>
        <time>2015-03-24T15:01:02Z</time>
      </trkpt>
      <trkpt lat="43.511" lon="6.312">
        <ele>297.05</ele>
        <time>2015-03-24T15:01:24Z</time>
      </trkpt>
      <trkpt lat="43.51093" lon="6.31177">
        <ele>281</ele>
        <time>2015-03-24T15:02:20Z</time>
      </trkpt>
      <trkpt lat="43.51088" lon="6.31153">
        <ele>276.75</ele>
        <time>2015-03-24T15:02:34Z</time>
      </trkpt>
      <trkpt lat="43.51085" lon="6.31126">
        <ele>276.89</ele>
        <time>2015-03-24T15:02:49Z</time>
      </trkpt>
      <trkpt lat="43.51082" lon="6.31098">
        <ele>277.27</ele>
        <time>2015-03-24T15:02:57Z</time>
      </trkpt>
      <trkpt lat="43.51076" lon="6.31074">
        <ele>278.42</ele>
        <time>2015-03-24T15:03:05Z</time>
      </trkpt>
      <trkpt lat="43.51074" lon="6.31048">
        <ele>280.94</ele>
        <time>2015-03-24T15:03:26Z</time>
      </trkpt>
      <trkpt lat="43.51068" lon="6.31031">
        <ele>282.57</ele>
        <time>2015-03-24T15:03:39Z</time>
      </trkpt>
      <trkpt lat="43.51059" lon="6.31009">
        <ele>286.74</ele>
        <time>2015-03-24T15:04:43Z</time>
      </trkpt>
      <trkpt lat="43.51049" lon="6.30986">
        <ele>285.85</ele>
        <time>2015-03-24T15:05:02Z</time>
      </trkpt>
      <trkpt lat="43.51039" lon="6.30964">
        <ele>285.29</ele>
        <time>2015-03-24T15:05:24Z</time>
      </trkpt>
      <trkpt lat="43.51034" lon="6.3094">
        <ele>285.58</ele>
        <time>2015-03-24T15:06:19Z</time>
      </trkpt>
      <trkpt lat="43.51035" lon="6.30914">
        <ele>285.9</ele>
        <time>2015-03-24T15:06:45Z</time>
      </trkpt>
      <trkpt lat="43.51031" lon="6.30889">
        <ele>284.57</ele>
        <time>2015-03-24T15:07:04Z</time>
      </trkpt>
      <trkpt lat="43.51015" lon="6.30876">
        <ele>282.4</ele>
        <time>2015-03-24T15:07:27Z</time>
      </trkpt>
      <trkpt lat="43.50998" lon="6.30865">
        <ele>280.75</ele>
        <time>2015-03-24T15:07:45Z</time>
      </trkpt>
      <trkpt lat="43.5098" lon="6.30858">
        <ele>280.32</ele>
        <time>2015-03-24T15:08:11Z</time>
      </trkpt>
      <trkpt lat="43.50963" lon="6.30849">
        <ele>279.01</ele>
        <time>2015-03-24T15:08:27Z</time>
      </trkpt>
      <trkpt lat="43.50943" lon="6.30847">
        <ele>277.48</ele>
        <time>2015-03-24T15:08:45Z</time>
      </trkpt>
      <trkpt lat="43.50931" lon="6.30866">
        <ele>275.1</ele>
        <time>2015-03-24T15:09:04Z</time>
      </trkpt>
      <trkpt lat="43.50921" lon="6.30886">
        <ele>273.55</ele>
        <time>2015-03-24T15:09:25Z</time>
      </trkpt>
      <trkpt lat="43.50907" lon="6.30903">
        <ele>271.52</ele>
        <time>2015-03-24T15:09:41Z</time>
      </trkpt>
      <trkpt lat="43.50901" lon="6.30927">
        <ele>269.2</ele>
        <time>2015-03-24T15:10:01Z</time>
      </trkpt>
      <trkpt lat="43.50892" lon="6.30948">
        <ele>265.2</ele>
        <time>2015-03-24T15:10:20Z</time>
      </trkpt>
      <trkpt lat="43.50882" lon="6.3097">
        <ele>265.31</ele>
        <time>2015-03-24T15:10:39Z</time>
      </trkpt>
      <trkpt lat="43.50868" lon="6.30987">
        <ele>264.41</ele>
        <time>2015-03-24T15:10:55Z</time>
      </trkpt>
      <trkpt lat="43.50856" lon="6.31006">
        <ele>265.27</ele>
        <time>2015-03-24T15:11:14Z</time>
      </trkpt>
      <trkpt lat="43.50841" lon="6.31022">
        <ele>263.97</ele>
        <time>2015-03-24T15:11:31Z</time>
      </trkpt>
      <trkpt lat="43.50829" lon="6.31041">
        <ele>262.71</ele>
        <time>2015-03-24T15:11:47Z</time>
      </trkpt>
      <trkpt lat="43.50822" lon="6.31065">
        <ele>262.6</ele>
        <time>2015-03-24T15:12:09Z</time>
      </trkpt>
      <trkpt lat="43.5081" lon="6.31085">
        <ele>262.08</ele>
        <time>2015-03-24T15:12:28Z</time>
      </trkpt>
      <trkpt lat="43.50799" lon="6.31106">
        <ele>260.26</ele>
        <time>2015-03-24T15:12:43Z</time>
      </trkpt>
      <trkpt lat="43.50783" lon="6.31119">
        <ele>257.76</ele>
        <time>2015-03-24T15:12:59Z</time>
      </trkpt>
      <trkpt lat="43.50764" lon="6.31127">
        <ele>257.21</ele>
        <time>2015-03-24T15:13:25Z</time>
      </trkpt>
      <trkpt lat="43.50754" lon="6.31149">
        <ele>256.97</ele>
        <time>2015-03-24T15:13:40Z</time>
      </trkpt>
      <trkpt lat="43.50742" lon="6.31169">
        <ele>255.73</ele>
        <time>2015-03-24T15:13:59Z</time>
      </trkpt>
      <trkpt lat="43.50728" lon="6.31185">
        <ele>255.93</ele>
        <time>2015-03-24T15:14:15Z</time>
      </trkpt>
      <trkpt lat="43.50716" lon="6.31205">
        <ele>256.37</ele>
        <time>2015-03-24T15:14:33Z</time>
      </trkpt>
      <trkpt lat="43.50702" lon="6.31222">
        <ele>256.75</ele>
        <time>2015-03-24T15:14:53Z</time>
      </trkpt>
      <trkpt lat="43.50688" lon="6.3124">
        <ele>256.34</ele>
        <time>2015-03-24T15:15:10Z</time>
      </trkpt>
      <trkpt lat="43.50679" lon="6.31263">
        <ele>255.73</ele>
        <time>2015-03-24T15:15:26Z</time>
      </trkpt>
      <trkpt lat="43.50666" lon="6.31282">
        <ele>255.34</ele>
        <time>2015-03-24T15:15:41Z</time>
      </trkpt>
      <trkpt lat="43.50654" lon="6.31302">
        <ele>255.53</ele>
        <time>2015-03-24T15:16:06Z</time>
      </trkpt>
      <trkpt lat="43.50647" lon="6.31326">
        <ele>255.43</ele>
        <time>2015-03-24T15:16:24Z</time>
      </trkpt>
      <trkpt lat="43.5064" lon="6.31349">
        <ele>254.79</ele>
        <time>2015-03-24T15:16:43Z</time>
      </trkpt>
      <trkpt lat="43.50638" lon="6.31374">
        <ele>254.08</ele>
        <time>2015-03-24T15:17:00Z</time>
      </trkpt>
      <trkpt lat="43.50633" lon="6.31398">
        <ele>256.85</ele>
        <time>2015-03-24T15:17:19Z</time>
      </trkpt>
      <trkpt lat="43.50632" lon="6.31423">
        <ele>256.62</ele>
        <time>2015-03-24T15:18:01Z</time>
      </trkpt>
      <trkpt lat="43.50613" lon="6.31422">
        <ele>256.95</ele>
        <time>2015-03-24T15:18:39Z</time>
      </trkpt>
      <trkpt lat="43.506" lon="6.31405">
        <ele>257.79</ele>
        <time>2015-03-24T15:18:54Z</time>
      </trkpt>
      <trkpt lat="43.50586" lon="6.31388">
        <ele>257.21</ele>
        <time>2015-03-24T15:19:12Z</time>
      </trkpt>
      <trkpt lat="43.50579" lon="6.31366">
        <ele>256.24</ele>
        <time>2015-03-24T15:19:30Z</time>
      </trkpt>
      <trkpt lat="43.50589" lon="6.31344">
        <ele>253.93</ele>
        <time>2015-03-24T15:19:52Z</time>
      </trkpt>
      <trkpt lat="43.50597" lon="6.31322">
        <ele>252.64</ele>
        <time>2015-03-24T15:20:11Z</time>
      </trkpt>
    </trkseg>
  </trk>
</gpx>